createdAt,value
2022-12-18T00:01:21.900Z,95.98
2022-12-18T00:06:41.099Z,95.43
2022-12-18T00:17:19.422Z,95.3
2022-12-18T00:22:38.710Z,95.31
2022-12-18T00:27:57.881Z,95.34
2022-12-18T00:33:16.892Z,94.89
2022-12-18T00:38:36.490Z,94.83
2022-12-18T00:43:56.211Z,94.81
2022-12-18T00:49:15.908Z,95.44
2022-12-18T00:54:35.440Z,96.34
2022-12-18T00:59:55.381Z,96.45
2022-12-18T01:05:15.350Z,95.71
2022-12-18T01:10:35.167Z,94.76
2022-12-18T01:15:54.377Z,94.99
2022-12-18T01:21:13.632Z,95.76
2022-12-18T01:26:33.559Z,95.69
2022-12-18T01:31:52.922Z,95.3
2022-12-18T01:37:12.164Z,95.15
2022-12-18T01:42:31.190Z,95.21
2022-12-18T01:47:51.176Z,94.94
2022-12-18T01:53:10.654Z,95.19
2022-12-18T01:58:29.708Z,95.23
2022-12-18T02:03:48.730Z,94.65
2022-12-18T02:09:08.612Z,94.18
2022-12-18T02:14:28.165Z,94.27
2022-12-18T02:19:47.461Z,94.72
2022-12-18T02:25:06.702Z,94.97
2022-12-18T02:30:26.672Z,95.13
2022-12-18T02:35:45.843Z,95.12
2022-12-18T02:41:04.994Z,95.25
2022-12-18T02:46:24.375Z,95.27
2022-12-18T02:51:43.177Z,95.15
2022-12-18T02:57:02.842Z,95.19
2022-12-18T03:02:22.065Z,95.03
2022-12-18T03:07:41.160Z,94.78
2022-12-18T03:13:00.867Z,94.76
2022-12-18T03:18:20.831Z,95.46
2022-12-18T03:23:40.443Z,95.42
2022-12-18T03:28:59.434Z,95.23
2022-12-18T03:34:19.224Z,95.01
2022-12-18T03:39:39.026Z,94.93
2022-12-18T03:44:58.244Z,94.47
2022-12-18T03:50:17.395Z,95.04
2022-12-18T03:55:37.272Z,95.19
2022-12-18T04:00:57.054Z,94.82
2022-12-18T04:06:16.130Z,94.66
2022-12-18T04:11:35.806Z,95.08
2022-12-18T04:16:55.670Z,94.92
2022-12-18T04:22:14.759Z,94.89
2022-12-18T04:27:34.603Z,94.21
2022-12-18T04:32:53.722Z,94.03
2022-12-18T04:38:12.917Z,94.27
2022-12-18T04:43:31.923Z,94.38
2022-12-18T04:48:51.820Z,94.7
2022-12-18T04:54:10.987Z,94.99
2022-12-18T04:59:30.911Z,95.05
2022-12-18T05:04:50.152Z,94.73
2022-12-18T05:10:09.832Z,94.33
2022-12-18T05:15:29.498Z,94.11
2022-12-18T05:20:49.267Z,93.51
2022-12-18T05:26:08.979Z,93.49
2022-12-18T05:31:28.348Z,93.59
2022-12-18T05:36:47.725Z,93.56
2022-12-18T05:42:06.663Z,94.12
2022-12-18T05:47:25.567Z,94.14
2022-12-18T05:52:45.048Z,93.98
2022-12-18T05:58:04.511Z,94.27
2022-12-18T06:03:25.909Z,94.28
2022-12-18T06:03:49.108Z,92.83
2022-12-18T06:09:08.859Z,93.82
2022-12-18T06:14:29.052Z,93.99
2022-12-18T06:21:03.222Z,93.81
2022-12-18T06:25:08.094Z,94.36
2022-12-18T06:30:27.949Z,94.47
2022-12-18T06:35:46.930Z,93.98
2022-12-18T06:41:06.461Z,93.71
2022-12-18T06:46:25.907Z,93.46
2022-12-18T06:51:45.265Z,93.73
2022-12-18T06:57:04.763Z,93.75
2022-12-18T07:02:24.412Z,94.11
2022-12-18T07:07:43.510Z,94.32
2022-12-18T07:13:13.222Z,94.14
2022-12-18T07:18:23.659Z,94.16
2022-12-18T07:23:43.411Z,94.13
2022-12-18T07:29:02.544Z,93.78
2022-12-18T07:34:22.151Z,93.6
2022-12-18T07:39:41.700Z,93.55
2022-12-18T07:45:00.805Z,93.91
2022-12-18T07:50:19.857Z,94.14
2022-12-18T07:56:00.223Z,94.09
2022-12-18T08:00:59.276Z,93.76
2022-12-18T08:06:18.653Z,93.65
2022-12-18T08:11:37.783Z,93.42
2022-12-18T08:16:57.417Z,93.62
2022-12-18T08:22:16.310Z,93.84
2022-12-18T08:27:35.633Z,93.85
2022-12-18T08:32:55.504Z,93.62
2022-12-18T08:38:15.180Z,93.66
2022-12-18T08:43:34.533Z,93.41
2022-12-18T08:48:54.197Z,93.61
2022-12-18T08:54:13.758Z,94.12
2022-12-18T08:59:33.161Z,94.15
2022-12-18T09:04:57.258Z,93.99
2022-12-18T09:10:12.027Z,93.91
2022-12-18T09:15:31.059Z,94.17
2022-12-18T09:20:50.284Z,94.25
2022-12-18T09:26:10.584Z,94.09
2022-12-18T09:31:29.626Z,93.93
2022-12-18T09:36:48.576Z,94.48
2022-12-18T09:42:08.153Z,93.84
2022-12-18T09:47:27.534Z,94.26
2022-12-18T09:52:46.469Z,94.1
2022-12-18T09:58:05.419Z,94.29
2022-12-18T10:03:24.648Z,93.76
2022-12-18T10:08:44.428Z,93.57
2022-12-18T10:14:03.969Z,94.19
2022-12-18T10:19:22.924Z,94.03
2022-12-18T10:24:42.802Z,93.84
2022-12-18T10:30:02.026Z,93.24
2022-12-18T10:35:21.825Z,94.55
2022-12-18T10:40:41.000Z,94.11
2022-12-18T10:46:00.516Z,92.79
2022-12-18T10:51:19.708Z,92.28
2022-12-18T10:56:38.786Z,91.61
2022-12-18T11:01:58.045Z,90.22
2022-12-18T11:07:17.169Z,90.28
2022-12-18T11:12:36.751Z,88.92
2022-12-18T11:17:55.854Z,90.34
2022-12-18T11:23:14.746Z,89.63
2022-12-18T11:29:48.944Z,88.1
2022-12-18T11:34:27.874Z,87.58
2022-12-18T11:39:13.127Z,86.42
2022-12-18T11:44:32.433Z,88.26
2022-12-18T11:49:52.010Z,88.24
2022-12-18T11:55:11.016Z,88.6
2022-12-18T12:00:30.167Z,88.41
2022-12-18T12:05:49.234Z,87.98
2022-12-18T12:11:07.228Z,88.63
2022-12-18T12:18:11.037Z,88.81
2022-12-18T12:21:45.393Z,88.09
2022-12-18T12:27:04.346Z,86.95
2022-12-18T12:32:23.622Z,86.61
2022-12-18T12:37:43.056Z,86.24
2022-12-18T12:43:02.679Z,85.83
2022-12-18T12:48:22.031Z,85.42
2022-12-18T12:53:41.924Z,85.12
2022-12-18T12:59:01.012Z,85.09
2022-12-18T13:04:20.491Z,84.89
2022-12-18T13:09:39.491Z,84.9
2022-12-18T13:14:58.438Z,85.01
2022-12-18T13:20:17.858Z,84.46
2022-12-18T13:25:37.582Z,84.97
2022-12-18T13:30:57.172Z,84.76
2022-12-18T13:36:15.922Z,85.64
2022-12-18T13:41:35.246Z,85.52
2022-12-18T13:46:54.468Z,85.68
2022-12-18T13:52:13.644Z,86.04
2022-12-18T13:57:33.329Z,86.13
2022-12-18T14:02:53.011Z,86.02
2022-12-18T14:08:11.863Z,85.89
2022-12-18T14:13:31.644Z,85.99
2022-12-18T14:18:50.914Z,85.91
2022-12-18T14:24:10.410Z,86.31
2022-12-18T14:29:29.355Z,86.35
2022-12-18T14:34:48.625Z,86.53
2022-12-18T14:40:11.168Z,86.6
2022-12-18T14:45:27.298Z,86.81
2022-12-18T14:50:46.974Z,86.83
2022-12-18T14:56:06.603Z,87.34
2022-12-18T15:01:26.337Z,87.67
2022-12-18T15:06:45.836Z,87.93
2022-12-18T15:13:19.988Z,88.28
2022-12-18T15:17:24.627Z,88.51
2022-12-18T15:22:43.709Z,88.89
2022-12-18T15:28:03.119Z,88.97
2022-12-18T15:33:22.001Z,88.69
2022-12-18T15:38:41.307Z,88.31
2022-12-18T15:44:01.003Z,88.27
2022-12-18T15:49:20.044Z,88.42
2022-12-18T15:54:39.681Z,88.75
2022-12-18T15:59:59.629Z,88.83
2022-12-18T16:05:19.127Z,88.85
2022-12-18T16:10:38.562Z,88.93
2022-12-18T16:15:58.126Z,89.09
2022-12-18T16:21:17.545Z,89.33
2022-12-18T16:26:36.693Z,89.55
2022-12-18T16:31:56.540Z,89.85
2022-12-18T16:37:15.545Z,89.96
2022-12-18T16:42:34.935Z,89.64
2022-12-18T16:47:54.756Z,89.44
2022-12-18T16:53:14.518Z,89.54
2022-12-18T16:58:33.894Z,89.36
2022-12-18T17:05:08.041Z,89.41
2022-12-18T17:09:13.073Z,89.55
2022-12-18T17:14:32.039Z,89.72
2022-12-18T17:19:51.677Z,89.83
2022-12-18T17:25:10.813Z,89.5
2022-12-18T17:30:30.356Z,89.47
2022-12-18T17:35:49.347Z,89.64
2022-12-18T17:41:08.372Z,89.99
2022-12-18T17:46:28.000Z,90.24
2022-12-18T17:51:47.190Z,90.42
2022-12-18T17:57:06.566Z,90.35
2022-12-18T18:02:26.243Z,90.28
2022-12-18T18:07:44.993Z,90.27
2022-12-18T18:13:03.467Z,90.11
2022-12-18T18:18:22.622Z,90.08
2022-12-18T18:23:41.953Z,90.06
2022-12-18T18:29:02.487Z,90.02
2022-12-18T18:34:20.228Z,89.92
2022-12-18T18:39:39.629Z,89.82
2022-12-18T18:44:59.251Z,89.67
2022-12-18T18:50:18.878Z,89.65
2022-12-18T18:55:38.674Z,89.68
2022-12-18T19:00:57.660Z,89.58
2022-12-18T19:06:17.588Z,89.68
2022-12-18T19:11:38.078Z,89.58
2022-12-18T19:16:55.912Z,88.93
2022-12-18T19:22:15.665Z,90.63
2022-12-18T19:29:14.279Z,90.3
2022-12-18T19:32:53.960Z,89.27
2022-12-18T19:38:13.074Z,90.39
2022-12-18T19:43:32.132Z,91.08
2022-12-18T19:48:51.543Z,91.5
2022-12-18T19:54:14.833Z,91.43
2022-12-18T19:59:30.468Z,90.62
2022-12-18T20:04:49.818Z,91.17
2022-12-18T20:10:09.479Z,91.12
2022-12-18T20:15:28.341Z,89.79
2022-12-18T20:20:48.238Z,90.09
2022-12-18T20:26:07.097Z,89.77
2022-12-18T20:31:26.767Z,89.14
2022-12-18T20:36:45.961Z,88.61
2022-12-18T20:42:05.326Z,88.12
2022-12-18T20:47:25.091Z,87.77
2022-12-18T20:53:59.249Z,87.88
2022-12-18T20:58:05.270Z,87.67
2022-12-18T21:03:23.747Z,87.57
2022-12-18T21:08:43.225Z,87.63
2022-12-18T21:14:02.415Z,88.04
2022-12-18T21:19:20.658Z,88.33
2022-12-18T21:24:40.203Z,88.39
2022-12-18T21:29:59.332Z,88.29
2022-12-18T21:35:19.026Z,89.1
2022-12-18T21:40:38.263Z,90.11
2022-12-18T21:45:57.860Z,88.88
2022-12-18T21:51:17.381Z,89.83
2022-12-18T21:56:36.644Z,90.92
2022-12-18T22:01:56.361Z,91.04
2022-12-18T22:07:15.970Z,90.01
2022-12-18T22:12:34.948Z,90.5
2022-12-18T22:17:56.980Z,90.23
2022-12-18T22:23:13.779Z,89.78
2022-12-18T22:28:33.002Z,90.17
2022-12-18T22:33:52.761Z,90.41
2022-12-18T22:39:11.804Z,90.28
2022-12-18T22:44:30.904Z,89.67
2022-12-18T22:49:50.535Z,90.48
2022-12-18T22:55:09.599Z,90
2022-12-18T23:00:29.166Z,89.58
2022-12-18T23:05:48.728Z,88.69
2022-12-18T23:11:08.255Z,88.22
2022-12-18T23:16:27.411Z,87.98
2022-12-18T23:21:46.688Z,87.76
2022-12-18T23:27:06.942Z,87.79
2022-12-18T23:32:25.399Z,88.57
2022-12-18T23:37:59.097Z,88.77
2022-12-18T23:43:04.876Z,89.04
2022-12-18T23:48:24.700Z,89.3
2022-12-18T23:48:50.815Z,87.38
2022-12-18T23:54:10.215Z,89.55
2022-12-18T23:59:29.415Z,89.88
